Time;durP1;ratioP1;P1;durP2;ratioP2;P2;SDS_P1;SDS_P2;PMS_P1;PMS_P2;Temp;Humidity;BMP_temperature;BMP_pressure;BME280_temperature;BME280_humidity;BME280_pressure;Samples;Min_cycle;Max_cycle;Signal;HPM_P1;HPM_P2
2022/05/20 00:00:19;;;;;;;1.30;1.20;;;;;;;20.47;100.00;97110.06;5031803;28;101877;-60
2022/05/20 00:02:48;;;;;;;1.43;1.27;;;;;;;20.33;100.00;97103.81;5030530;28;105700;-60
2022/05/20 00:05:15;;;;;;;1.43;1.33;;;;;;;20.20;100.00;97103.75;5029459;28;105018;-60
2022/05/20 00:07:42;;;;;;;2.00;1.33;;;;;;;20.16;100.00;97102.75;5030211;28;102088;-60
2022/05/20 00:10:10;;;;;;;1.80;1.37;;;;;;;20.00;100.00;97104.81;5031798;28;102880;-60
2022/05/20 00:12:38;;;;;;;1.50;1.40;;;;;;;19.89;100.00;97102.59;5030996;28;102719;-60
2022/05/20 00:15:06;;;;;;;1.50;1.40;;;;;;;19.82;100.00;97096.72;5034938;28;101814;-60
2022/05/20 00:17:33;;;;;;;1.60;1.50;;;;;;;19.84;100.00;97102.66;5031142;28;102860;-60
2022/05/20 00:20:02;;;;;;;1.50;1.40;;;;;;;19.76;100.00;97097.88;5031428;27;102173;-60
2022/05/20 00:22:29;;;;;;;1.63;1.53;;;;;;;19.77;100.00;97088.69;5029899;28;105283;-60
2022/05/20 00:27:40;;;;;;;1.33;1.10;;;;;;;19.63;100.00;97087.81;5031361;27;101803;-60
2022/05/20 00:30:08;;;;;;;1.50;1.40;;;;;;;19.55;100.00;97074.97;5031434;28;102377;-60
2022/05/20 00:32:35;;;;;;;1.70;1.20;;;;;;;19.45;100.00;97085.91;5030678;28;102581;-60
2022/05/20 00:35:05;;;;;;;2.00;1.30;;;;;;;19.44;100.00;97068.91;5031019;27;101813;-60
2022/05/20 00:37:32;;;;;;;1.77;1.30;;;;;;;19.37;100.00;97062.25;5034180;28;102878;-60
2022/05/20 00:39:59;;;;;;;1.30;1.23;;;;;;;19.38;100.00;97048.50;5031035;27;101838;-60
2022/05/20 00:42:26;;;;;;;1.43;1.33;;;;;;;19.26;100.00;97052.69;5030980;27;102420;-60
2022/05/20 00:44:53;;;;;;;1.40;1.30;;;;;;;19.26;100.00;97041.91;5030537;27;102786;-60
2022/05/20 00:47:20;;;;;;;2.30;1.30;;;;;;;19.23;100.00;97037.91;5031314;27;102148;-60
2022/05/20 00:49:51;;;;;;;1.93;1.50;;;;;;;19.12;100.00;97024.81;5029254;28;105647;-60
2022/05/20 00:52:23;;;;;;;1.67;1.57;;;;;;;18.99;100.00;97020.09;5028899;28;106292;-60
2022/05/20 00:54:53;;;;;;;1.83;1.73;;;;;;;18.90;100.00;97017.25;5029429;28;101937;-60
2022/05/20 00:57:23;;;;;;;1.50;1.40;;;;;;;18.88;100.00;97018.63;5029198;27;102405;-60
2022/05/20 00:59:54;;;;;;;2.10;1.90;;;;;;;18.90;100.00;97024.50;5033822;28;102584;-60
2022/05/20 01:02:24;;;;;;;1.57;1.47;;;;;;;18.86;100.00;97032.38;5031108;28;102346;-60
2022/05/20 01:04:51;;;;;;;2.20;1.57;;;;;;;18.95;100.00;97030.66;5029167;28;103215;-60
2022/05/20 01:07:20;;;;;;;2.90;1.60;;;;;;;18.90;100.00;97038.81;5028741;28;102199;-60
2022/05/20 01:09:47;;;;;;;2.20;1.40;;;;;;;18.75;100.00;97030.09;5030445;28;102521;-60
2022/05/20 01:12:14;;;;;;;2.13;1.40;;;;;;;18.73;100.00;97032.25;5030120;28;102848;-60
2022/05/20 01:14:41;;;;;;;1.50;1.40;;;;;;;18.66;100.00;97029.09;5028847;28;101947;-60
2022/05/20 01:17:10;;;;;;;3.23;1.57;;;;;;;18.71;100.00;97026.38;5029213;28;105187;-60
2022/05/20 01:19:41;;;;;;;1.80;1.37;;;;;;;18.74;100.00;97033.88;5031724;28;105226;-60
2022/05/20 01:22:11;;;;;;;2.00;1.57;;;;;;;18.67;100.00;97025.31;5030316;28;102333;-60
2022/05/20 01:24:39;;;;;;;1.53;1.43;;;;;;;18.66;100.00;97023.72;5029891;28;102883;-60
2022/05/20 01:27:06;;;;;;;1.37;1.30;;;;;;;18.59;100.00;97012.50;5030551;28;101769;-60
2022/05/20 01:29:33;;;;;;;3.57;1.80;;;;;;;18.55;100.00;97012.25;5028663;28;105443;-60
2022/05/20 01:32:00;;;;;;;1.87;1.40;;;;;;;18.61;100.00;97007.59;5028225;28;103817;-60
2022/05/20 01:34:27;;;;;;;2.00;1.30;;;;;;;18.65;100.00;97005.94;5028814;28;101968;-60
2022/05/20 01:36:54;;;;;;;1.47;1.37;;;;;;;18.71;100.00;97002.13;5028885;28;105024;-60
2022/05/20 01:39:21;;;;;;;1.20;1.17;;;;;;;18.81;100.00;96993.91;5028127;28;103947;-60
2022/05/20 01:41:57;;;;;;;1.40;1.30;;;;;;;18.91;100.00;96985.72;5032216;28;101898;-60
2022/05/20 01:44:29;;;;;;;1.10;1.10;;;;;;;19.06;100.00;96989.00;5028106;28;106126;-60
2022/05/20 01:47:02;;;;;;;3.70;1.20;;;;;;;19.07;100.00;96984.44;5028611;28;101872;-60
2022/05/20 01:49:39;;;;;;;2.03;1.10;;;;;;;19.05;100.00;96984.72;5028693;28;103969;-60
2022/05/20 01:52:16;;;;;;;3.10;1.27;;;;;;;19.07;100.00;96976.34;5029661;28;102870;-60
2022/05/20 01:54:53;;;;;;;1.43;1.20;;;;;;;19.01;100.00;96978.28;5028447;28;101947;-60
2022/05/20 01:57:27;;;;;;;1.20;1.10;;;;;;;19.01;100.00;96982.91;5027987;28;105540;-60
2022/05/20 02:00:01;;;;;;;1.60;1.50;;;;;;;18.96;100.00;96974.88;5028054;28;105567;-60
2022/05/20 02:02:39;;;;;;;1.37;1.27;;;;;;;18.88;100.00;96979.00;5026777;27;101897;-60
2022/05/20 02:05:10;;;;;;;1.47;1.33;;;;;;;18.76;100.00;96973.22;5033037;28;102436;-60
2022/05/20 02:07:42;;;;;;;1.50;1.40;;;;;;;18.75;100.00;96965.44;5031004;27;101930;-60
2022/05/20 02:10:17;;;;;;;2.87;1.47;;;;;;;18.66;100.00;96969.84;5031988;28;105731;-60
2022/05/20 02:12:51;;;;;;;1.33;1.30;;;;;;;18.68;100.00;96957.69;5031442;28;105442;-60
2022/05/20 02:15:24;;;;;;;1.20;1.20;;;;;;;18.73;100.00;96965.72;5032079;28;102242;-60
2022/05/20 02:17:56;;;;;;;1.57;1.20;;;;;;;18.77;100.00;96955.16;5031786;28;105574;-60
2022/05/20 02:20:28;;;;;;;1.57;1.30;;;;;;;18.77;100.00;96952.47;5031347;28;104206;-60
2022/05/20 02:23:00;;;;;;;1.93;1.10;;;;;;;18.82;100.00;96941.63;5031871;28;101832;-60
2022/05/20 02:25:31;;;;;;;1.67;1.20;;;;;;;18.95;100.00;96947.09;5031907;28;104881;-60
2022/05/20 02:28:04;;;;;;;1.17;1.17;;;;;;;18.99;100.00;96939.22;5034421;28;105350;-60
2022/05/20 02:30:34;;;;;;;1.70;1.23;;;;;;;19.04;100.00;96936.47;5031665;28;105559;-60
2022/05/20 02:33:07;;;;;;;1.30;1.20;;;;;;;19.12;100.00;96941.22;5031038;28;104098;-60
2022/05/20 02:35:35;;;;;;;1.30;1.20;;;;;;;19.13;100.00;96926.66;5033372;28;101718;-60
2022/05/20 02:38:07;;;;;;;1.23;1.13;;;;;;;19.07;100.00;96938.59;5033292;28;102724;-60
2022/05/20 02:40:34;;;;;;;1.13;1.10;;;;;;;19.05;100.00;96925.41;5030895;28;104979;-60
2022/05/20 02:43:03;;;;;;;1.17;1.10;;;;;;;19.07;100.00;96927.81;5031636;28;101896;-60
2022/05/20 02:45:30;;;;;;;1.10;1.00;;;;;;;19.01;100.00;96923.59;5031500;28;106290;-60
2022/05/20 02:47:57;;;;;;;3.30;1.23;;;;;;;18.98;100.00;96921.47;5030773;28;105298;-60
2022/05/20 02:50:25;;;;;;;1.50;1.40;;;;;;;18.89;100.00;96915.09;5036051;28;101833;-60
2022/05/20 02:52:52;;;;;;;2.07;1.13;;;;;;;18.82;100.00;96918.19;5030800;28;103765;-60
2022/05/20 02:55:19;;;;;;;1.43;1.27;;;;;;;18.78;100.00;96916.31;5032871;28;101894;-60
2022/05/20 02:57:46;;;;;;;2.10;1.00;;;;;;;18.70;100.00;96914.28;5030707;28;102890;-60
2022/05/20 03:05:45;;;;;;;1.90;1.30;;;;;;;18.35;100.00;96914.69;5031231;28;104004;-60
2022/05/20 03:08:12;;;;;;;1.70;1.30;;;;;;;18.38;100.00;96919.53;5030640;28;105735;-60
2022/05/20 03:10:39;;;;;;;1.97;1.57;;;;;;;18.18;100.00;96914.31;5031084;28;101851;-60
2022/05/20 03:13:08;;;;;;;2.20;1.17;;;;;;;18.13;100.00;96917.06;5033562;28;106615;-60
2022/05/20 03:15:39;;;;;;;2.73;1.70;;;;;;;17.98;100.00;96912.63;5030889;28;101956;-60
2022/05/20 03:18:08;;;;;;;1.30;1.23;;;;;;;17.92;100.00;96910.28;5031023;28;104868;-60
2022/05/20 03:20:35;;;;;;;1.83;1.73;;;;;;;17.93;100.00;96912.69;5029600;27;105878;-60
2022/05/20 03:23:03;;;;;;;1.93;1.57;;;;;;;17.74;100.00;96917.19;5032043;27;101819;-60
2022/05/20 03:25:30;;;;;;;2.70;1.63;;;;;;;17.51;100.00;96914.41;5030889;28;103788;-60
2022/05/20 03:27:56;;;;;;;3.93;1.63;;;;;;;17.33;100.00;96917.75;5030103;28;104171;-60
2022/05/20 03:30:23;;;;;;;2.20;1.63;;;;;;;17.29;100.00;96916.69;5032358;28;101703;-60
2022/05/20 03:32:52;;;;;;;1.57;1.47;;;;;;;17.40;100.00;96916.38;5033384;28;103805;-60
2022/05/20 03:35:20;;;;;;;1.93;1.50;;;;;;;17.36;100.00;96912.59;5030688;28;101904;-60
2022/05/20 03:37:46;;;;;;;1.90;1.63;;;;;;;17.41;100.00;96919.84;5030830;28;104106;-60
2022/05/20 03:40:14;;;;;;;2.40;1.40;;;;;;;17.40;100.00;96918.25;5029810;28;104206;-60
2022/05/20 03:42:41;;;;;;;1.60;1.50;;;;;;;17.26;100.00;96911.84;5030478;28;102105;-60
2022/05/20 03:45:10;;;;;;;1.67;1.57;;;;;;;17.08;100.00;96920.59;5030628;28;103911;-60
2022/05/20 03:47:37;;;;;;;3.33;1.67;;;;;;;17.27;100.00;96908.91;5030051;28;105563;-60
2022/05/20 03:50:07;;;;;;;2.00;1.63;;;;;;;17.37;100.00;96910.69;5030438;28;102070;-60
2022/05/20 03:52:34;;;;;;;2.47;1.70;;;;;;;17.53;100.00;96913.03;5032182;28;102372;-60
2022/05/20 03:55:00;;;;;;;1.60;1.50;;;;;;;17.52;100.00;96913.31;5032877;28;105517;-60
2022/05/20 03:57:28;;;;;;;2.27;1.53;;;;;;;17.59;100.00;96916.47;5029949;28;102654;-60
2022/05/20 03:59:55;;;;;;;2.47;1.80;;;;;;;17.69;100.00;96913.72;5029578;28;103951;-60
2022/05/20 04:02:20;;;;;;;2.77;1.50;;;;;;;17.68;100.00;96920.19;5031628;27;101833;-60
2022/05/20 04:04:51;;;;;;;3.23;2.00;;;;;;;17.54;100.00;96919.25;5031871;28;102648;-60
2022/05/20 04:07:21;;;;;;;2.43;1.50;;;;;;;17.55;100.00;96921.63;5029718;28;103086;-60
2022/05/20 04:09:49;;;;;;;2.60;2.00;;;;;;;17.69;100.00;96922.59;5029900;28;101846;-60
2022/05/20 04:12:25;;;;;;;3.90;1.90;;;;;;;17.70;100.00;96929.56;5030126;28;103982;-60
2022/05/20 04:14:52;;;;;;;2.27;2.07;;;;;;;17.73;100.00;96929.03;5029381;28;105878;-60
2022/05/20 04:17:19;;;;;;;3.57;1.80;;;;;;;17.87;100.00;96931.88;5033623;28;101937;-60
2022/05/20 04:19:46;;;;;;;1.63;1.53;;;;;;;17.96;100.00;96928.28;5029490;28;104984;-60
2022/05/20 04:22:15;;;;;;;2.83;2.03;;;;;;;18.07;100.00;96929.78;5031529;28;102047;-60
2022/05/20 04:24:44;;;;;;;3.67;1.70;;;;;;;18.30;100.00;96934.38;5029641;28;103574;-60
2022/05/20 04:27:12;;;;;;;1.90;1.80;;;;;;;18.37;100.00;96923.31;5029155;28;106605;-60
2022/05/20 04:29:39;;;;;;;1.60;1.50;;;;;;;18.46;100.00;96929.66;5031381;28;101904;-60
2022/05/20 04:32:07;;;;;;;2.93;1.80;;;;;;;18.57;100.00;96928.44;5031414;28;102322;-60
2022/05/20 04:34:34;;;;;;;1.60;1.50;;;;;;;18.67;100.00;96931.84;5028974;28;105964;-60
2022/05/20 04:37:01;;;;;;;2.10;1.73;;;;;;;18.80;100.00;96933.81;5029668;28;101869;-60
2022/05/20 04:39:28;;;;;;;2.17;1.33;;;;;;;18.94;100.00;96929.34;5032568;28;103571;-60
2022/05/20 04:47:28;;;;;;;1.83;1.60;;;;;;;19.23;100.00;96929.25;5029100;28;103957;-60
2022/05/20 04:49:55;;;;;;;2.37;1.40;;;;;;;19.26;100.00;96926.75;5030677;27;102335;-60
2022/05/20 04:52:22;;;;;;;3.53;1.80;;;;;;;19.30;100.00;96924.28;5029471;28;103593;-60
2022/05/20 04:54:51;;;;;;;2.20;1.60;;;;;;;19.31;100.00;96937.47;5028428;28;105550;-60
2022/05/20 04:57:26;;;;;;;3.20;1.60;;;;;;;19.41;100.00;96931.13;5028667;28;101980;-60
2022/05/20 04:59:55;;;;;;;2.27;1.70;;;;;;;19.61;100.00;96933.53;5029326;28;105605;-61
2022/05/20 05:02:22;;;;;;;2.27;1.67;;;;;;;19.87;100.00;96934.69;5033511;28;103266;-61
2022/05/20 05:04:49;;;;;;;1.90;1.70;;;;;;;20.26;100.00;96935.09;5029322;28;103711;-61
2022/05/20 05:07:16;;;;;;;3.20;1.80;;;;;;;20.17;100.00;96936.91;5028581;28;105208;-61
2022/05/20 05:09:45;;;;;;;3.13;1.70;;;;;;;20.34;100.00;96939.81;5030332;28;101951;-61
2022/05/20 05:12:14;;;;;;;9.17;2.20;;;;;;;20.73;100.00;96946.34;5029198;28;104797;-61
2022/05/20 05:14:45;;;;;;;4.93;2.20;;;;;;;20.98;100.00;96947.78;5029937;27;103264;-61
2022/05/20 05:17:14;;;;;;;5.20;2.13;;;;;;;21.04;100.00;96946.56;5030381;28;101943;-61
2022/05/20 05:19:44;;;;;;;3.90;2.07;;;;;;;21.18;100.00;96944.63;5030413;27;103729;-61
2022/05/20 05:22:12;;;;;;;3.07;1.60;;;;;;;21.23;100.00;96945.31;5029754;27;103222;-61
2022/05/20 05:24:39;;;;;;;3.27;1.87;;;;;;;21.39;100.00;96943.88;5049398;27;102123;-61
2022/05/20 05:27:09;;;;;;;4.87;1.70;;;;;;;21.60;100.00;96949.63;5027944;28;104175;-61
2022/05/20 05:29:38;;;;;;;3.53;1.70;;;;;;;21.68;100.00;96946.22;5028999;28;101811;-61
2022/05/20 05:32:08;;;;;;;3.73;1.90;;;;;;;21.94;100.00;96953.41;5028957;28;103539;-60
2022/05/20 05:34:35;;;;;;;3.00;1.77;;;;;;;22.13;100.00;96954.00;5028099;28;106074;-61
2022/05/20 05:37:04;;;;;;;3.07;1.70;;;;;;;22.27;100.00;96953.91;5028960;28;102340;-61
2022/05/20 05:39:31;;;;;;;1.70;1.60;;;;;;;22.41;100.00;96962.78;5028910;28;106160;-61
2022/05/20 05:41:59;;;;;;;1.70;1.60;;;;;;;22.32;100.00;96951.88;5027590;28;104198;-61
2022/05/20 05:44:26;;;;;;;2.70;1.70;;;;;;;22.13;100.00;96945.88;5033470;28;101914;-61
2022/05/20 05:46:54;;;;;;;2.80;1.60;;;;;;;21.90;100.00;96947.00;5028125;28;105063;-61
2022/05/20 05:49:22;;;;;;;1.73;1.63;;;;;;;21.27;100.00;96948.22;5030040;27;102213;-61
2022/05/20 05:51:50;;;;;;;2.17;1.50;;;;;;;21.54;100.00;96951.66;5028370;28;105655;-61
2022/05/20 05:54:18;;;;;;;1.70;1.60;;;;;;;21.55;100.00;96947.03;5027934;28;105221;-61
2022/05/20 05:56:45;;;;;;;2.07;1.90;;;;;;;21.96;100.00;96947.69;5027933;28;101961;-61
2022/05/20 05:59:12;;;;;;;3.63;1.97;;;;;;;21.63;100.00;96951.72;5028294;28;103581;-61
2022/05/20 06:01:39;;;;;;;4.20;1.67;;;;;;;21.58;100.00;96949.13;5027503;28;106212;-61
2022/05/20 06:04:07;;;;;;;1.60;1.50;;;;;;;21.61;100.00;96940.38;5027157;28;102121;-59
2022/05/20 06:06:35;;;;;;;1.60;1.50;;;;;;;21.93;100.00;96938.28;5028478;28;102453;-60
2022/05/20 06:09:02;;;;;;;1.77;1.40;;;;;;;22.40;100.00;96943.00;5030036;28;101859;-60
2022/05/20 06:11:30;;;;;;;2.70;1.60;;;;;;;22.69;100.00;96937.09;5029515;27;102546;-60
2022/05/20 06:14:10;;;;;;;3.40;1.63;;;;;;;22.68;100.00;96938.22;5027897;28;105443;-60
2022/05/20 06:16:39;;;;;;;2.50;1.50;;;;;;;22.91;100.00;96937.00;5028413;28;102116;-60
2022/05/20 06:19:06;;;;;;;2.03;1.43;;;;;;;22.76;100.00;96940.13;5027201;28;104641;-60
2022/05/20 06:21:35;;;;;;;1.43;1.33;;;;;;;22.59;100.00;96940.06;5027590;28;103893;-60
2022/05/20 06:24:02;;;;;;;3.10;1.63;;;;;;;22.51;100.00;96944.34;5028238;28;102158;-60
2022/05/20 06:26:29;;;;;;;2.53;1.43;;;;;;;22.79;100.00;96942.22;5027674;28;105281;-60
2022/05/20 06:28:57;;;;;;;1.47;1.37;;;;;;;22.93;100.00;96945.59;5026942;28;103825;-60
2022/05/20 06:31:24;;;;;;;1.80;1.40;;;;;;;23.01;100.00;96942.94;5027448;28;105333;-60
2022/05/20 06:34:09;;;;;;;1.67;1.40;;;;;;;22.70;100.00;96936.78;5027873;28;104960;-60
2022/05/20 06:42:06;;;;;;;1.63;1.50;;;;;;;23.44;100.00;96937.59;5027616;28;106444;-60
2022/05/20 06:44:49;;;;;;;4.03;1.70;;;;;;;23.26;100.00;96941.44;5028365;28;102326;-60
2022/05/20 06:47:15;;;;;;;1.57;1.47;;;;;;;23.73;100.00;96930.41;5028044;28;103954;-60
2022/05/20 06:49:43;;;;;;;2.53;1.30;;;;;;;23.25;100.00;96947.94;5028853;28;103319;-60
2022/05/20 06:52:11;;;;;;;2.83;1.60;;;;;;;23.33;100.00;96939.81;5031475;28;101828;-60
2022/05/20 06:54:39;;;;;;;1.77;1.40;;;;;;;23.36;100.00;96936.47;5028515;27;104141;-60
2022/05/20 06:57:06;;;;;;;1.47;1.27;;;;;;;23.59;100.00;96939.84;5029279;28;102256;-60
2022/05/20 06:59:33;;;;;;;2.67;1.50;;;;;;;23.79;100.00;96936.47;5031564;28;104976;-60
2022/05/20 07:02:01;;;;;;;1.60;1.30;;;;;;;23.87;100.00;96932.97;5030840;28;104205;-60
2022/05/20 07:04:34;;;;;;;2.70;1.70;;;;;;;24.06;100.00;96934.25;5031642;28;101868;-59
2022/05/20 07:07:01;;;;;;;2.20;1.50;;;;;;;24.25;100.00;96931.16;5031374;28;104019;-60
2022/05/20 07:09:30;;;;;;;2.30;1.50;;;;;;;24.45;100.00;96931.25;5030742;28;105307;-60
2022/05/20 07:11:57;;;;;;;1.70;1.40;;;;;;;24.74;100.00;96930.53;5031464;28;102153;-60
2022/05/20 07:14:34;;;;;;;1.40;1.30;;;;;;;24.55;100.00;96933.63;5035606;28;103108;-60
2022/05/20 07:17:01;;;;;;;1.60;1.30;;;;;;;24.77;100.00;96930.66;5029842;28;101711;-60
2022/05/20 07:19:28;;;;;;;2.50;1.50;;;;;;;24.79;97.75;96931.13;5031267;28;105737;-60
2022/05/20 07:21:55;;;;;;;1.50;1.40;;;;;;;24.72;100.00;96928.13;5030584;28;105025;-60
2022/05/20 07:24:22;;;;;;;2.37;1.60;;;;;;;24.76;100.00;96928.28;5031124;28;102344;-60
2022/05/20 07:26:59;;;;;;;1.50;1.43;;;;;;;24.73;100.00;96923.50;5031092;28;105384;-60
2022/05/20 07:29:26;;;;;;;1.47;1.37;;;;;;;24.70;100.00;96924.94;5030442;28;103860;-60
2022/05/20 07:31:52;;;;;;;1.40;1.30;;;;;;;24.93;100.00;96926.28;5031039;28;101957;-60
2022/05/20 07:34:22;;;;;;;1.60;1.50;;;;;;;24.96;100.00;96927.53;5031046;28;105216;-60
2022/05/20 07:36:48;;;;;;;2.40;1.90;;;;;;;24.73;100.00;96920.78;5033746;27;101964;-60
2022/05/20 07:39:15;;;;;;;3.20;1.67;;;;;;;25.19;100.00;96926.09;5030864;28;105436;-60
2022/05/20 07:41:42;;;;;;;1.77;1.67;;;;;;;25.19;100.00;96920.66;5029771;28;105670;-60
2022/05/20 07:44:12;;;;;;;1.83;1.60;;;;;;;25.53;100.00;96915.00;5031016;28;102031;-60
2022/05/20 07:46:39;;;;;;;2.27;1.57;;;;;;;25.83;100.00;96916.50;5030716;28;105009;-60
2022/05/20 07:49:06;;;;;;;2.50;1.60;;;;;;;25.47;98.09;96916.31;5031646;28;102549;-60
2022/05/20 07:51:35;;;;;;;1.67;1.57;;;;;;;25.52;99.89;96918.84;5030532;28;101839;-60
2022/05/20 07:54:27;;;;;;;2.40;1.50;;;;;;;25.84;100.00;96921.59;5030204;28;105063;-60
2022/05/20 07:56:59;;;;;;;1.63;1.53;;;;;;;25.89;97.52;96917.88;5013130;28;105777;-60
2022/05/20 07:59:31;;;;;;;3.47;1.50;;;;;;;26.13;95.02;96918.81;5010765;28;105279;-60
2022/05/20 08:02:01;;;;;;;1.80;1.60;;;;;;;26.12;84.91;96910.94;5009888;28;105311;-60
2022/05/20 08:04:55;;;;;;;2.27;1.50;;;;;;;26.22;91.38;96918.72;5025465;28;102363;-60
2022/05/20 08:07:26;;;;;;;2.33;1.70;;;;;;;25.88;90.97;96911.63;5017273;28;104537;-60
2022/05/20 08:09:54;;;;;;;2.20;1.37;;;;;;;26.13;90.24;96918.81;5029205;28;105841;-60
2022/05/20 08:12:21;;;;;;;1.57;1.50;;;;;;;26.56;92.59;96916.44;5029888;28;102070;-60
2022/05/20 08:15:03;;;;;;;4.00;1.67;;;;;;;26.72;81.36;96913.81;5030567;28;105240;-61
2022/05/20 08:17:33;;;;;;;1.70;1.60;;;;;;;26.78;79.01;96910.53;5029828;28;105841;-61
2022/05/20 08:20:00;;;;;;;1.40;1.30;;;;;;;26.73;79.06;96909.94;5033746;28;101921;-60
2022/05/20 08:22:27;;;;;;;2.30;1.40;;;;;;;26.69;76.42;96909.81;5029436;28;105294;-61
2022/05/20 08:25:14;;;;;;;1.77;1.43;;;;;;;26.81;75.89;96912.56;5031732;28;102215;-60
2022/05/20 08:27:46;;;;;;;3.53;1.50;;;;;;;27.02;80.85;96907.00;4952533;28;105000;-60
2022/05/20 08:30:18;;;;;;;1.60;1.50;;;;;;;26.78;73.74;96907.00;4958629;28;105460;-60
2022/05/20 08:32:45;;;;;;;2.10;1.40;;;;;;;27.00;73.90;96904.59;4979155;28;101890;-58
2022/05/20 08:39:00;;;;;;;2.03;1.40;;;;;;;27.30;76.41;96891.50;4967302;28;102176;-59
2022/05/20 08:41:30;;;;;;;1.60;1.50;;;;;;;26.95;73.08;96895.84;4969590;28;101949;-59
2022/05/20 08:44:08;;;;;;;2.50;1.70;;;;;;;27.19;76.05;96888.44;4972528;28;102481;-59
2022/05/20 08:46:37;;;;;;;1.50;1.40;;;;;;;27.44;79.02;96887.25;4969044;28;102299;-60
2022/05/20 08:49:04;;;;;;;1.83;1.50;;;;;;;27.34;70.75;96886.91;4952486;28;104925;-59
2022/05/20 08:51:33;;;;;;;1.50;1.40;;;;;;;27.76;65.90;96886.22;4959062;28;103797;-58
2022/05/20 08:54:08;;;;;;;3.50;1.63;;;;;;;27.65;66.99;96887.88;4977947;28;101941;-59
2022/05/20 08:56:50;;;;;;;2.20;1.57;;;;;;;27.67;75.12;96880.09;4959501;28;105474;-59
2022/05/20 08:59:20;;;;;;;2.47;1.40;;;;;;;28.11;68.42;96883.72;4988230;28;102718;-58
2022/05/20 09:01:52;;;;;;;3.27;1.60;;;;;;;27.93;66.01;96875.00;4966769;28;101857;-60
2022/05/20 09:04:51;;;;;;;1.77;1.63;;;;;;;28.33;66.17;96874.91;4976066;28;103650;-58
2022/05/20 09:07:20;;;;;;;1.70;1.60;;;;;;;28.30;61.44;96875.59;5046218;27;105695;-58
2022/05/20 09:09:49;;;;;;;1.87;1.53;;;;;;;28.65;69.55;96871.03;5022610;28;104986;-58
2022/05/20 09:12:31;;;;;;;1.70;1.60;;;;;;;28.78;70.43;96867.84;5029003;28;105011;-58
2022/05/20 09:18:35;;;;;;;5.28;2.15;;;;;;;28.93;63.22;96866.25;5024267;27;102460;-58
2022/05/20 09:21:03;;;;;;;1.60;1.50;;;;;;;28.51;61.27;96859.75;5030077;28;103108;-58
2022/05/20 09:23:30;;;;;;;1.40;1.35;;;;;;;28.52;61.63;96862.16;5030580;28;102044;-56
2022/05/20 09:26:07;;;;;;;3.08;1.60;;;;;;;28.69;61.88;96850.81;5028943;28;106111;-57
2022/05/20 09:28:42;;;;;;;4.18;2.05;;;;;;;29.07;62.39;96853.72;5030145;28;102979;-51
2022/05/20 09:31:22;;;;;;;1.63;1.48;;;;;;;29.45;57.67;96847.47;5032339;28;101816;-57
2022/05/20 09:37:38;;;;;;;1.60;1.50;;;;;;;29.69;57.24;96847.22;5027686;28;101694;-62
2022/05/20 09:40:21;;;;;;;1.70;1.60;;;;;;;29.24;59.56;96836.84;5029735;28;101945;-59
2022/05/20 09:43:00;;;;;;;1.77;1.58;;;;;;;29.77;54.67;96829.75;5028414;28;105334;-56
2022/05/20 09:49:04;;;;;;;2.28;1.65;;;;;;;29.46;52.36;96829.88;5028744;28;105598;-61
2022/05/20 09:51:39;;;;;;;1.73;1.60;;;;;;;29.74;51.07;96825.78;5028036;28;105363;-57
2022/05/20 09:54:35;;;;;;;1.85;1.52;;;;;;;29.52;52.08;96822.94;5032314;28;101888;-57
2022/05/20 09:57:30;;;;;;;2.00;1.80;;;;;;;29.72;49.97;96817.13;5026466;28;105378;-57
2022/05/20 10:00:02;;;;;;;2.22;1.50;;;;;;;29.64;45.42;96814.63;5030169;28;102052;-58
2022/05/20 10:02:45;;;;;;;2.60;1.52;;;;;;;29.97;45.35;96818.38;5027039;27;102145;-56
2022/05/20 10:08:41;;;;;;;4.50;1.90;;;;;;;29.81;46.16;96803.19;5030091;27;101975;-55
2022/05/20 10:11:17;;;;;;;1.50;1.40;;;;;;;29.69;45.87;96801.38;5030163;28;102465;-51
2022/05/20 10:14:19;;;;;;;1.55;1.45;;;;;;;30.73;41.50;96792.66;5054310;27;103974;-54
2022/05/20 10:16:51;;;;;;;1.77;1.67;;;;;;;31.27;39.47;96793.06;5030126;28;101667;-55
2022/05/20 10:19:27;;;;;;;1.83;1.40;;;;;;;31.15;36.87;96782.25;5031210;28;105549;-55
2022/05/20 10:22:00;;;;;;;2.55;1.60;;;;;;;31.28;40.23;96778.16;5028433;28;101830;-55
2022/05/20 10:24:56;;;;;;;1.42;1.33;;;;;;;31.63;38.12;96779.34;5028352;28;105312;-53
2022/05/20 10:27:51;;;;;;;2.35;1.50;;;;;;;31.92;37.63;96774.97;5027771;28;105143;-53
2022/05/20 10:33:06;;;;;;;2.42;1.60;;;;;;;31.82;37.42;96770.94;5031723;28;104767;-52
2022/05/20 10:35:53;;;;;;;1.65;1.52;;;;;;;31.60;36.39;96771.06;5032283;27;103109;-53
2022/05/20 10:38:36;;;;;;;1.65;1.50;;;;;;;31.56;36.04;96756.47;5031361;28;102006;-52
2022/05/20 10:41:07;;;;;;;1.60;1.50;;;;;;;32.14;37.42;96760.25;5033169;28;102310;-57
2022/05/20 10:49:50;;;;;;;2.80;1.85;;;;;;;32.31;36.20;96754.91;5030640;28;105527;-57
2022/05/20 10:52:31;;;;;;;1.55;1.45;;;;;;;32.13;35.08;96742.13;5031618;28;101785;-56
2022/05/20 10:55:29;;;;;;;3.20;1.65;;;;;;;32.07;34.68;96738.97;5032534;28;102526;-56
2022/05/20 10:58:43;;;;;;;1.77;1.63;;;;;;;32.36;31.35;96740.00;5025714;27;102995;-56
2022/05/20 11:01:22;;;;;;;1.98;1.50;;;;;;;31.75;31.42;96743.38;5032784;28;101858;-55
2022/05/20 11:04:28;;;;;;;1.60;1.50;;;;;;;32.30;32.64;96731.31;5023945;28;105729;-55
2022/05/20 11:07:40;;;;;;;1.50;1.40;;;;;;;32.70;31.70;96727.66;5017496;28;103710;-56
2022/05/20 11:10:32;;;;;;;2.65;1.80;;;;;;;32.83;34.17;96720.66;5034725;28;102169;-55
2022/05/20 11:13:06;;;;;;;2.60;1.63;;;;;;;32.83;30.54;96723.41;5026555;28;103099;-57
2022/05/20 11:16:01;;;;;;;2.63;1.88;;;;;;;32.42;31.78;96713.72;5032819;28;101815;-57
2022/05/20 11:18:52;;;;;;;2.25;1.95;;;;;;;32.66;32.16;96710.31;5031045;28;103559;-54
2022/05/20 11:21:49;;;;;;;2.15;1.33;;;;;;;33.24;33.49;96700.00;5032009;27;102555;-54
2022/05/20 11:24:53;;;;;;;2.05;1.42;;;;;;;33.32;32.36;96713.44;5031182;28;102245;-52
2022/05/20 11:28:01;;;;;;;2.15;1.80;;;;;;;32.66;31.04;96691.03;5012019;28;102386;-55
2022/05/20 11:30:45;;;;;;;2.92;1.70;;;;;;;33.09;31.45;96687.34;5016681;28;103865;-55
2022/05/20 11:33:30;;;;;;;2.08;1.50;;;;;;;33.63;32.18;96687.13;5030817;28;101729;-56
2022/05/20 11:36:15;;;;;;;2.85;1.60;;;;;;;34.03;30.97;96684.03;5035190;28;102908;-55
2022/05/20 11:39:03;;;;;;;2.90;1.58;;;;;;;34.44;31.90;96679.69;5032472;27;101851;-55
2022/05/20 11:41:42;;;;;;;1.83;1.70;;;;;;;33.28;29.78;96676.03;5031510;27;101885;-54
2022/05/20 11:44:49;;;;;;;2.13;2.03;;;;;;;33.42;30.29;96670.53;5011627;28;102754;-56
2022/05/20 11:47:52;;;;;;;1.88;1.45;;;;;;;33.38;31.62;96669.72;5012053;28;101761;-53
2022/05/20 11:50:34;;;;;;;3.22;1.92;;;;;;;32.46;30.95;96656.66;5011035;28;105291;-55
2022/05/20 11:53:08;;;;;;;2.15;1.95;;;;;;;32.97;32.85;96660.13;5031569;28;102681;-54
2022/05/20 11:55:42;;;;;;;2.13;1.60;;;;;;;33.87;32.66;96665.09;5030299;28;101770;-55
2022/05/20 11:58:34;;;;;;;2.40;1.67;;;;;;;34.56;31.15;96657.19;5030643;28;105789;-55
2022/05/20 12:01:02;;;;;;;1.58;1.48;;;;;;;34.73;31.30;96656.34;4992168;28;103174;-56
2022/05/20 12:04:07;;;;;;;2.42;1.77;;;;;;;34.61;29.71;96645.72;4990354;28;104750;-55
2022/05/20 12:06:37;;;;;;;3.22;1.80;;;;;;;34.38;29.38;96648.16;4983597;28;105925;-53
2022/05/20 12:09:25;;;;;;;2.28;1.65;;;;;;;34.01;29.15;96637.50;4990310;28;101889;-55
2022/05/20 12:12:14;;;;;;;2.70;1.60;;;;;;;34.80;30.66;96648.03;4981931;28;105450;-58
2022/05/20 12:15:29;;;;;;;3.78;1.73;;;;;;;35.25;30.96;96636.81;4990093;28;102598;-58
2022/05/20 12:17:56;;;;;;;3.67;1.50;;;;;;;35.57;28.80;96633.88;4991530;28;101999;-58
2022/05/20 12:26:44;;;;;;;1.65;1.55;;;;;;;32.79;30.46;96617.94;4991103;28;102523;-58
2022/05/20 12:29:47;;;;;;;2.15;1.80;;;;;;;33.76;29.05;96611.84;4967105;28;102841;-58
2022/05/20 12:32:43;;;;;;;2.30;1.90;;;;;;;34.50;29.55;96611.81;4990730;28;101840;-58
2022/05/20 12:35:14;;;;;;;2.40;1.65;;;;;;;34.50;28.64;96609.06;4991077;28;102416;-59
2022/05/20 12:38:21;;;;;;;2.00;1.70;;;;;;;34.57;29.42;96603.50;4990202;28;102510;-58